sensor_id;sensor_type;location;lat;lon;timestamp;temperature;humidity
29663;DHT22;16578;53.266;7.920;2022-10-16T00:01:41;16.70;77.20
29663;DHT22;16578;53.266;7.920;2022-10-16T00:04:08;16.60;77.10
29663;DHT22;16578;53.266;7.920;2022-10-16T00:06:33;16.60;77.10
29663;DHT22;16578;53.266;7.920;2022-10-16T00:08:59;16.60;77.00
29663;DHT22;16578;53.266;7.920;2022-10-16T00:11:28;16.60;76.90
29663;DHT22;16578;53.266;7.920;2022-10-16T00:13:58;16.60;77.00
29663;DHT22;16578;53.266;7.920;2022-10-16T00:16:25;16.60;76.90
29663;DHT22;16578;53.266;7.920;2022-10-16T00:18:51;16.60;77.00
29663;DHT22;16578;53.266;7.920;2022-10-16T00:21:20;16.60;77.00
29663;DHT22;16578;53.266;7.920;2022-10-16T00:23:46;16.60;77.00
29663;DHT22;16578;53.266;7.920;2022-10-16T00:26:15;16.60;77.00
29663;DHT22;16578;53.266;7.920;2022-10-16T00:28:40;16.60;77.00
29663;DHT22;16578;53.266;7.920;2022-10-16T00:31:10;16.50;77.20
29663;DHT22;16578;53.266;7.920;2022-10-16T00:33:37;16.50;77.10
29663;DHT22;16578;53.266;7.920;2022-10-16T00:36:04;16.60;77.00
29663;DHT22;16578;53.266;7.920;2022-10-16T00:38:30;16.50;76.90
29663;DHT22;16578;53.266;7.920;2022-10-16T00:40:56;16.50;77.00
29663;DHT22;16578;53.266;7.920;2022-10-16T00:43:58;16.50;77.00
29663;DHT22;16578;53.266;7.920;2022-10-16T00:46:35;16.50;76.90
29663;DHT22;16578;53.266;7.920;2022-10-16T00:51:49;16.50;77.00
29663;DHT22;16578;53.266;7.920;2022-10-16T00:54:25;16.50;76.90
29663;DHT22;16578;53.266;7.920;2022-10-16T00:56:53;16.50;76.70
29663;DHT22;16578;53.266;7.920;2022-10-16T00:59:27;16.50;76.70
29663;DHT22;16578;53.266;7.920;2022-10-16T01:01:54;16.50;76.70
29663;DHT22;16578;53.266;7.920;2022-10-16T01:04:20;16.50;76.70
29663;DHT22;16578;53.266;7.920;2022-10-16T01:12:15;16.50;76.60
29663;DHT22;16578;53.266;7.920;2022-10-16T01:17:47;16.50;76.40
29663;DHT22;16578;53.266;7.920;2022-10-16T01:20:26;16.40;76.40
29663;DHT22;16578;53.266;7.920;2022-10-16T01:25:33;16.40;76.50
29663;DHT22;16578;53.266;7.920;2022-10-16T01:28:02;16.30;76.80
29663;DHT22;16578;53.266;7.920;2022-10-16T01:30:32;16.40;76.60
29663;DHT22;16578;53.266;7.920;2022-10-16T01:33:08;16.40;76.50
29663;DHT22;16578;53.266;7.920;2022-10-16T01:35:47;16.40;76.50
29663;DHT22;16578;53.266;7.920;2022-10-16T01:38:30;16.40;76.50
29663;DHT22;16578;53.266;7.920;2022-10-16T01:44:05;16.30;76.50
29663;DHT22;16578;53.266;7.920;2022-10-16T01:46:36;16.30;76.60
29663;DHT22;16578;53.266;7.920;2022-10-16T01:49:03;16.30;77.50
29663;DHT22;16578;53.266;7.920;2022-10-16T01:51:29;16.30;76.60
29663;DHT22;16578;53.266;7.920;2022-10-16T01:53:57;16.30;76.60
29663;DHT22;16578;53.266;7.920;2022-10-16T01:56:25;16.30;76.60
29663;DHT22;16578;53.266;7.920;2022-10-16T01:59:15;16.30;76.50
29663;DHT22;16578;53.266;7.920;2022-10-16T02:01:49;16.30;76.30
29663;DHT22;16578;53.266;7.920;2022-10-16T02:05:01;16.30;76.50
29663;DHT22;16578;53.266;7.920;2022-10-16T02:07:06;16.30;76.50
29663;DHT22;16578;53.266;7.920;2022-10-16T02:09:35;16.20;76.40
29663;DHT22;16578;53.266;7.920;2022-10-16T02:12:08;16.20;76.30
29663;DHT22;16578;53.266;7.920;2022-10-16T02:14:38;16.20;76.30
29663;DHT22;16578;53.266;7.920;2022-10-16T02:17:16;16.20;76.40
29663;DHT22;16578;53.266;7.920;2022-10-16T02:19:42;16.20;76.30
29663;DHT22;16578;53.266;7.920;2022-10-16T02:22:16;16.20;76.30
29663;DHT22;16578;53.266;7.920;2022-10-16T02:30:51;16.20;76.20
29663;DHT22;16578;53.266;7.920;2022-10-16T02:33:10;16.20;76.30
29663;DHT22;16578;53.266;7.920;2022-10-16T02:35:39;16.10;76.30
29663;DHT22;16578;53.266;7.920;2022-10-16T02:38:06;16.10;76.20
29663;DHT22;16578;53.266;7.920;2022-10-16T02:40:33;16.10;76.20
29663;DHT22;16578;53.266;7.920;2022-10-16T02:42:59;16.10;76.20
29663;DHT22;16578;53.266;7.920;2022-10-16T02:45:24;16.10;76.30
29663;DHT22;16578;53.266;7.920;2022-10-16T02:47:50;16.10;76.20
29663;DHT22;16578;53.266;7.920;2022-10-16T02:50:16;16.10;76.20
29663;DHT22;16578;53.266;7.920;2022-10-16T02:52:42;16.00;76.20
29663;DHT22;16578;53.266;7.920;2022-10-16T02:55:08;16.00;76.20
29663;DHT22;16578;53.266;7.920;2022-10-16T02:57:34;16.00;76.30
29663;DHT22;16578;53.266;7.920;2022-10-16T03:00:03;16.00;76.20
29663;DHT22;16578;53.266;7.920;2022-10-16T03:02:29;16.00;76.30
29663;DHT22;16578;53.266;7.920;2022-10-16T03:04:54;16.00;76.40
29663;DHT22;16578;53.266;7.920;2022-10-16T03:07:20;16.00;76.40
29663;DHT22;16578;53.266;7.920;2022-10-16T03:09:46;16.10;76.50
29663;DHT22;16578;53.266;7.920;2022-10-16T03:12:11;16.00;76.50
29663;DHT22;16578;53.266;7.920;2022-10-16T03:14:37;16.00;76.50
29663;DHT22;16578;53.266;7.920;2022-10-16T03:17:03;16.00;76.60
29663;DHT22;16578;53.266;7.920;2022-10-16T03:19:28;16.00;76.50
29663;DHT22;16578;53.266;7.920;2022-10-16T03:21:54;16.00;76.50
29663;DHT22;16578;53.266;7.920;2022-10-16T03:24:19;16.00;76.60
29663;DHT22;16578;53.266;7.920;2022-10-16T03:26:45;16.10;76.70
29663;DHT22;16578;53.266;7.920;2022-10-16T03:29:10;16.10;76.70
29663;DHT22;16578;53.266;7.920;2022-10-16T03:31:36;16.10;76.70
29663;DHT22;16578;53.266;7.920;2022-10-16T03:34:01;16.10;76.70
29663;DHT22;16578;53.266;7.920;2022-10-16T03:36:27;16.10;76.70
29663;DHT22;16578;53.266;7.920;2022-10-16T03:38:53;16.10;76.70
29663;DHT22;16578;53.266;7.920;2022-10-16T03:41:18;16.10;76.80
29663;DHT22;16578;53.266;7.920;2022-10-16T03:43:46;16.10;76.80
29663;DHT22;16578;53.266;7.920;2022-10-16T03:46:11;16.20;76.70
29663;DHT22;16578;53.266;7.920;2022-10-16T03:48:37;16.10;77.50
29663;DHT22;16578;53.266;7.920;2022-10-16T03:51:02;16.10;76.60
29663;DHT22;16578;53.266;7.920;2022-10-16T03:53:28;16.20;76.50
29663;DHT22;16578;53.266;7.920;2022-10-16T03:55:53;16.20;76.50
29663;DHT22;16578;53.266;7.920;2022-10-16T03:58:19;16.20;76.50
29663;DHT22;16578;53.266;7.920;2022-10-16T04:00:46;16.20;76.50
29663;DHT22;16578;53.266;7.920;2022-10-16T04:03:12;16.20;76.60
29663;DHT22;16578;53.266;7.920;2022-10-16T04:05:38;16.20;76.70
29663;DHT22;16578;53.266;7.920;2022-10-16T04:08:04;16.30;76.70
29663;DHT22;16578;53.266;7.920;2022-10-16T04:10:30;16.30;76.60
29663;DHT22;16578;53.266;7.920;2022-10-16T04:12:56;16.30;76.60
29663;DHT22;16578;53.266;7.920;2022-10-16T04:15:25;16.30;76.50
29663;DHT22;16578;53.266;7.920;2022-10-16T04:17:51;16.30;76.40
29663;DHT22;16578;53.266;7.920;2022-10-16T04:20:17;16.30;76.40
29663;DHT22;16578;53.266;7.920;2022-10-16T04:22:43;16.30;76.50
29663;DHT22;16578;53.266;7.920;2022-10-16T04:25:09;16.30;76.50
29663;DHT22;16578;53.266;7.920;2022-10-16T04:27:34;16.30;76.50
29663;DHT22;16578;53.266;7.920;2022-10-16T04:30:00;16.30;76.50
29663;DHT22;16578;53.266;7.920;2022-10-16T04:32:26;16.40;76.50
29663;DHT22;16578;53.266;7.920;2022-10-16T04:34:52;16.40;76.50
29663;DHT22;16578;53.266;7.920;2022-10-16T04:37:18;16.40;76.60
29663;DHT22;16578;53.266;7.920;2022-10-16T04:39:44;16.40;76.50
29663;DHT22;16578;53.266;7.920;2022-10-16T04:42:10;16.40;76.50
29663;DHT22;16578;53.266;7.920;2022-10-16T04:44:36;16.40;76.50
29663;DHT22;16578;53.266;7.920;2022-10-16T04:47:01;16.40;76.50
29663;DHT22;16578;53.266;7.920;2022-10-16T04:49:27;16.40;76.50
29663;DHT22;16578;53.266;7.920;2022-10-16T04:51:53;16.40;76.50
29663;DHT22;16578;53.266;7.920;2022-10-16T04:54:18;16.40;76.50
29663;DHT22;16578;53.266;7.920;2022-10-16T04:56:44;16.40;76.60
29663;DHT22;16578;53.266;7.920;2022-10-16T04:59:14;16.50;76.70
29663;DHT22;16578;53.266;7.920;2022-10-16T05:01:40;16.40;76.70
29663;DHT22;16578;53.266;7.920;2022-10-16T05:04:05;16.40;76.70
29663;DHT22;16578;53.266;7.920;2022-10-16T05:06:31;16.50;76.80
29663;DHT22;16578;53.266;7.920;2022-10-16T05:08:56;16.50;76.70
29663;DHT22;16578;53.266;7.920;2022-10-16T05:11:22;16.50;76.80
29663;DHT22;16578;53.266;7.920;2022-10-16T05:13:47;16.40;76.80
29663;DHT22;16578;53.266;7.920;2022-10-16T05:16:13;16.40;76.90
29663;DHT22;16578;53.266;7.920;2022-10-16T05:18:38;16.40;76.80
29663;DHT22;16578;53.266;7.920;2022-10-16T05:21:04;16.40;76.90
29663;DHT22;16578;53.266;7.920;2022-10-16T05:23:31;16.50;77.00
29663;DHT22;16578;53.266;7.920;2022-10-16T05:25:58;16.40;76.90
29663;DHT22;16578;53.266;7.920;2022-10-16T05:28:25;16.40;76.90
29663;DHT22;16578;53.266;7.920;2022-10-16T05:30:51;16.40;76.90
29663;DHT22;16578;53.266;7.920;2022-10-16T05:33:16;16.40;77.10
29663;DHT22;16578;53.266;7.920;2022-10-16T05:35:42;16.40;76.90
29663;DHT22;16578;53.266;7.920;2022-10-16T05:38:09;16.40;76.90
29663;DHT22;16578;53.266;7.920;2022-10-16T05:40:34;16.40;76.90
29663;DHT22;16578;53.266;7.920;2022-10-16T05:43:00;16.40;77.00
29663;DHT22;16578;53.266;7.920;2022-10-16T05:45:26;16.40;77.10
29663;DHT22;16578;53.266;7.920;2022-10-16T05:47:51;16.40;77.10
29663;DHT22;16578;53.266;7.920;2022-10-16T05:50:17;16.40;77.20
29663;DHT22;16578;53.266;7.920;2022-10-16T05:52:42;16.40;77.20
29663;DHT22;16578;53.266;7.920;2022-10-16T05:55:08;16.40;77.20
29663;DHT22;16578;53.266;7.920;2022-10-16T05:57:34;16.40;77.30
29663;DHT22;16578;53.266;7.920;2022-10-16T05:59:59;16.40;77.30
29663;DHT22;16578;53.266;7.920;2022-10-16T06:02:25;16.40;77.50
29663;DHT22;16578;53.266;7.920;2022-10-16T06:04:53;16.40;77.40
29663;DHT22;16578;53.266;7.920;2022-10-16T06:07:19;16.40;77.50
29663;DHT22;16578;53.266;7.920;2022-10-16T06:09:48;16.30;77.60
29663;DHT22;16578;53.266;7.920;2022-10-16T06:12:14;16.40;77.50
29663;DHT22;16578;53.266;7.920;2022-10-16T06:14:40;16.40;77.50
29663;DHT22;16578;53.266;7.920;2022-10-16T06:17:05;16.40;77.50
29663;DHT22;16578;53.266;7.920;2022-10-16T06:19:31;16.40;77.60
29663;DHT22;16578;53.266;7.920;2022-10-16T06:21:57;16.40;77.60
29663;DHT22;16578;53.266;7.920;2022-10-16T06:24:24;16.40;77.70
29663;DHT22;16578;53.266;7.920;2022-10-16T06:26:49;16.40;77.70
29663;DHT22;16578;53.266;7.920;2022-10-16T06:29:15;16.40;77.70
29663;DHT22;16578;53.266;7.920;2022-10-16T06:31:40;16.40;77.80
29663;DHT22;16578;53.266;7.920;2022-10-16T06:34:08;16.40;77.80
29663;DHT22;16578;53.266;7.920;2022-10-16T06:36:35;16.40;77.90
29663;DHT22;16578;53.266;7.920;2022-10-16T06:39:01;16.50;77.90
29663;DHT22;16578;53.266;7.920;2022-10-16T06:41:27;16.50;77.90
29663;DHT22;16578;53.266;7.920;2022-10-16T06:43:52;16.50;77.90
29663;DHT22;16578;53.266;7.920;2022-10-16T06:46:21;16.50;78.00
29663;DHT22;16578;53.266;7.920;2022-10-16T06:48:47;16.50;78.10
29663;DHT22;16578;53.266;7.920;2022-10-16T06:51:15;16.50;78.10
29663;DHT22;16578;53.266;7.920;2022-10-16T06:53:49;16.50;78.10
29663;DHT22;16578;53.266;7.920;2022-10-16T06:56:17;16.50;78.10
29663;DHT22;16578;53.266;7.920;2022-10-16T06:58:44;16.60;78.20
29663;DHT22;16578;53.266;7.920;2022-10-16T07:01:11;16.60;78.20
29663;DHT22;16578;53.266;7.920;2022-10-16T07:03:41;16.60;78.20
29663;DHT22;16578;53.266;7.920;2022-10-16T07:06:08;16.70;78.30
29663;DHT22;16578;53.266;7.920;2022-10-16T07:08:35;16.70;78.40
29663;DHT22;16578;53.266;7.920;2022-10-16T07:11:03;16.70;78.30
29663;DHT22;16578;53.266;7.920;2022-10-16T07:13:30;16.70;78.30
29663;DHT22;16578;53.266;7.920;2022-10-16T07:15:55;16.70;78.30
29663;DHT22;16578;53.266;7.920;2022-10-16T07:18:21;16.80;78.30
29663;DHT22;16578;53.266;7.920;2022-10-16T07:20:51;16.80;78.20
29663;DHT22;16578;53.266;7.920;2022-10-16T07:23:16;16.80;78.10
29663;DHT22;16578;53.266;7.920;2022-10-16T07:25:42;16.80;78.10
29663;DHT22;16578;53.266;7.920;2022-10-16T07:28:08;16.80;78.00
29663;DHT22;16578;53.266;7.920;2022-10-16T07:30:35;16.80;78.00
29663;DHT22;16578;53.266;7.920;2022-10-16T07:33:02;16.90;78.10
29663;DHT22;16578;53.266;7.920;2022-10-16T07:35:28;16.90;78.20
29663;DHT22;16578;53.266;7.920;2022-10-16T07:37:53;16.90;78.20
29663;DHT22;16578;53.266;7.920;2022-10-16T07:40:19;16.90;78.20
29663;DHT22;16578;53.266;7.920;2022-10-16T07:42:44;16.90;78.10
29663;DHT22;16578;53.266;7.920;2022-10-16T07:45:10;16.90;78.10
29663;DHT22;16578;53.266;7.920;2022-10-16T07:47:35;17.00;78.20
29663;DHT22;16578;53.266;7.920;2022-10-16T07:50:01;17.00;78.10
29663;DHT22;16578;53.266;7.920;2022-10-16T07:52:26;17.00;78.20
29663;DHT22;16578;53.266;7.920;2022-10-16T07:54:52;17.00;78.20
29663;DHT22;16578;53.266;7.920;2022-10-16T07:57:17;17.00;79.20
29663;DHT22;16578;53.266;7.920;2022-10-16T07:59:45;17.10;78.30
29663;DHT22;16578;53.266;7.920;2022-10-16T08:02:11;17.10;78.10
29663;DHT22;16578;53.266;7.920;2022-10-16T08:04:37;17.10;78.20
29663;DHT22;16578;53.266;7.920;2022-10-16T08:07:02;17.20;78.40
29663;DHT22;16578;53.266;7.920;2022-10-16T08:09:28;17.20;78.20
29663;DHT22;16578;53.266;7.920;2022-10-16T08:11:53;17.20;78.20
29663;DHT22;16578;53.266;7.920;2022-10-16T08:14:19;17.30;78.20
29663;DHT22;16578;53.266;7.920;2022-10-16T08:16:44;17.30;78.10
29663;DHT22;16578;53.266;7.920;2022-10-16T08:19:10;17.30;78.00
29663;DHT22;16578;53.266;7.920;2022-10-16T08:21:35;17.40;77.90
29663;DHT22;16578;53.266;7.920;2022-10-16T08:24:01;17.40;77.80
29663;DHT22;16578;53.266;7.920;2022-10-16T08:26:27;17.40;77.80
29663;DHT22;16578;53.266;7.920;2022-10-16T08:28:53;17.40;77.70
29663;DHT22;16578;53.266;7.920;2022-10-16T08:31:18;17.50;77.70
29663;DHT22;16578;53.266;7.920;2022-10-16T08:33:45;17.50;77.50
29663;DHT22;16578;53.266;7.920;2022-10-16T08:36:12;17.50;77.50
29663;DHT22;16578;53.266;7.920;2022-10-16T08:38:38;17.50;77.50
29663;DHT22;16578;53.266;7.920;2022-10-16T08:43:55;17.60;77.30
29663;DHT22;16578;53.266;7.920;2022-10-16T08:46:47;17.60;77.40
29663;DHT22;16578;53.266;7.920;2022-10-16T08:49:16;17.60;77.40
29663;DHT22;16578;53.266;7.920;2022-10-16T08:51:43;17.60;77.40
29663;DHT22;16578;53.266;7.920;2022-10-16T08:54:37;17.60;77.30
29663;DHT22;16578;53.266;7.920;2022-10-16T08:57:11;17.80;77.30
29663;DHT22;16578;53.266;7.920;2022-10-16T08:59:37;17.70;77.40
29663;DHT22;16578;53.266;7.920;2022-10-16T09:07:54;17.80;77.20
29663;DHT22;16578;53.266;7.920;2022-10-16T09:10:43;17.90;77.10
29663;DHT22;16578;53.266;7.920;2022-10-16T09:15:49;18.00;77.10
29663;DHT22;16578;53.266;7.920;2022-10-16T09:18:30;18.00;77.00
29663;DHT22;16578;53.266;7.920;2022-10-16T09:21:14;18.00;76.70
29663;DHT22;16578;53.266;7.920;2022-10-16T09:23:40;18.10;76.80
29663;DHT22;16578;53.266;7.920;2022-10-16T09:26:11;18.10;76.70
29663;DHT22;16578;53.266;7.920;2022-10-16T09:28:37;18.10;76.60
29663;DHT22;16578;53.266;7.920;2022-10-16T09:31:02;18.20;76.80
29663;DHT22;16578;53.266;7.920;2022-10-16T09:33:33;18.20;76.70
29663;DHT22;16578;53.266;7.920;2022-10-16T09:36:03;18.20;76.50
29663;DHT22;16578;53.266;7.920;2022-10-16T09:38:32;18.30;76.40
29663;DHT22;16578;53.266;7.920;2022-10-16T09:41:00;18.30;76.30
29663;DHT22;16578;53.266;7.920;2022-10-16T09:46:25;18.40;76.20
29663;DHT22;16578;53.266;7.920;2022-10-16T09:48:54;18.40;76.10
29663;DHT22;16578;53.266;7.920;2022-10-16T09:51:24;18.40;76.10
29663;DHT22;16578;53.266;7.920;2022-10-16T09:56:31;18.50;75.60
29663;DHT22;16578;53.266;7.920;2022-10-16T09:59:15;18.50;75.40
29663;DHT22;16578;53.266;7.920;2022-10-16T10:01:51;18.50;75.30
29663;DHT22;16578;53.266;7.920;2022-10-16T10:04:19;18.50;75.30
29663;DHT22;16578;53.266;7.920;2022-10-16T10:06:50;18.60;76.20
29663;DHT22;16578;53.266;7.920;2022-10-16T10:09:21;18.60;75.10
29663;DHT22;16578;53.266;7.920;2022-10-16T10:11:54;18.60;75.20
29663;DHT22;16578;53.266;7.920;2022-10-16T10:16:48;18.70;74.90
29663;DHT22;16578;53.266;7.920;2022-10-16T10:19:22;18.70;74.90
29663;DHT22;16578;53.266;7.920;2022-10-16T10:21:49;18.70;74.80
29663;DHT22;16578;53.266;7.920;2022-10-16T10:24:16;18.80;74.60
29663;DHT22;16578;53.266;7.920;2022-10-16T10:26:51;18.80;74.30
29663;DHT22;16578;53.266;7.920;2022-10-16T10:32:14;18.90;73.70
29663;DHT22;16578;53.266;7.920;2022-10-16T10:38:12;18.90;73.20
29663;DHT22;16578;53.266;7.920;2022-10-16T10:41:21;18.90;73.30
29663;DHT22;16578;53.266;7.920;2022-10-16T10:46:22;18.90;73.10
29663;DHT22;16578;53.266;7.920;2022-10-16T10:49:14;18.90;72.90
29663;DHT22;16578;53.266;7.920;2022-10-16T10:54:19;19.00;72.90
29663;DHT22;16578;53.266;7.920;2022-10-16T10:57:10;19.00;72.80
29663;DHT22;16578;53.266;7.920;2022-10-16T10:59:49;19.00;72.50
29663;DHT22;16578;53.266;7.920;2022-10-16T11:02:41;19.00;72.40
29663;DHT22;16578;53.266;7.920;2022-10-16T11:08:18;19.10;72.10
29663;DHT22;16578;53.266;7.920;2022-10-16T11:10:50;19.10;72.30
29663;DHT22;16578;53.266;7.920;2022-10-16T11:16:16;19.20;71.20
29663;DHT22;16578;53.266;7.920;2022-10-16T11:18:55;19.20;71.10
29663;DHT22;16578;53.266;7.920;2022-10-16T11:21:22;19.20;71.00
29663;DHT22;16578;53.266;7.920;2022-10-16T11:26:26;19.20;70.60
29663;DHT22;16578;53.266;7.920;2022-10-16T11:28:54;19.20;70.20
29663;DHT22;16578;53.266;7.920;2022-10-16T11:31:37;19.20;70.20
29663;DHT22;16578;53.266;7.920;2022-10-16T11:36:46;19.30;69.70
29663;DHT22;16578;53.266;7.920;2022-10-16T11:39:20;19.20;69.70
29663;DHT22;16578;53.266;7.920;2022-10-16T11:41:55;19.20;70.20
29663;DHT22;16578;53.266;7.920;2022-10-16T11:50:02;19.10;68.90
29663;DHT22;16578;53.266;7.920;2022-10-16T11:52:42;19.10;69.20
29663;DHT22;16578;53.266;7.920;2022-10-16T11:55:35;19.10;69.10
29663;DHT22;16578;53.266;7.920;2022-10-16T12:00:47;19.10;68.30
29663;DHT22;16578;53.266;7.920;2022-10-16T12:03:23;19.00;68.60
29663;DHT22;16578;53.266;7.920;2022-10-16T12:08:36;19.00;68.60
29663;DHT22;16578;53.266;7.920;2022-10-16T12:14:18;19.10;67.90
29663;DHT22;16578;53.266;7.920;2022-10-16T12:17:04;19.10;68.20
29663;DHT22;16578;53.266;7.920;2022-10-16T12:23:19;19.10;68.30
29663;DHT22;16578;53.266;7.920;2022-10-16T12:25:57;19.10;68.10
29663;DHT22;16578;53.266;7.920;2022-10-16T12:28:27;19.20;68.20
29663;DHT22;16578;53.266;7.920;2022-10-16T12:30:56;19.20;68.20
29663;DHT22;16578;53.266;7.920;2022-10-16T12:33:25;19.20;68.00
29663;DHT22;16578;53.266;7.920;2022-10-16T12:35:51;19.20;67.80
29663;DHT22;16578;53.266;7.920;2022-10-16T12:41:31;19.30;67.60
29663;DHT22;16578;53.266;7.920;2022-10-16T12:43:57;19.30;67.10
29663;DHT22;16578;53.266;7.920;2022-10-16T12:51:41;19.30;66.50
29663;DHT22;16578;53.266;7.920;2022-10-16T12:54:22;19.20;66.80
29663;DHT22;16578;53.266;7.920;2022-10-16T12:57:20;19.30;66.40
29663;DHT22;16578;53.266;7.920;2022-10-16T13:00:04;19.30;66.40
29663;DHT22;16578;53.266;7.920;2022-10-16T13:08:43;19.20;66.00
29663;DHT22;16578;53.266;7.920;2022-10-16T13:20:27;19.20;65.70
29663;DHT22;16578;53.266;7.920;2022-10-16T13:25:58;19.30;65.50
29663;DHT22;16578;53.266;7.920;2022-10-16T13:28:30;19.30;65.50
29663;DHT22;16578;53.266;7.920;2022-10-16T13:30:59;19.20;65.70
29663;DHT22;16578;53.266;7.920;2022-10-16T13:35:56;19.30;65.50
29663;DHT22;16578;53.266;7.920;2022-10-16T13:38:27;19.30;65.40
29663;DHT22;16578;53.266;7.920;2022-10-16T13:41:01;19.30;65.30
29663;DHT22;16578;53.266;7.920;2022-10-16T13:43:37;19.30;64.90
29663;DHT22;16578;53.266;7.920;2022-10-16T13:46:06;19.30;64.90
29663;DHT22;16578;53.266;7.920;2022-10-16T13:48:33;19.40;65.20
29663;DHT22;16578;53.266;7.920;2022-10-16T13:51:16;19.40;65.00
29663;DHT22;16578;53.266;7.920;2022-10-16T13:53:43;19.40;64.40
29663;DHT22;16578;53.266;7.920;2022-10-16T13:56:15;19.40;64.40
29663;DHT22;16578;53.266;7.920;2022-10-16T13:58:41;19.40;64.00
29663;DHT22;16578;53.266;7.920;2022-10-16T14:01:24;19.40;63.90
29663;DHT22;16578;53.266;7.920;2022-10-16T14:03:51;19.50;63.60
29663;DHT22;16578;53.266;7.920;2022-10-16T14:06:21;19.50;63.90
29663;DHT22;16578;53.266;7.920;2022-10-16T14:08:57;19.50;63.50
29663;DHT22;16578;53.266;7.920;2022-10-16T14:11:25;19.40;63.50
29663;DHT22;16578;53.266;7.920;2022-10-16T14:13:51;19.40;63.60
29663;DHT22;16578;53.266;7.920;2022-10-16T14:16:23;19.40;63.40
29663;DHT22;16578;53.266;7.920;2022-10-16T14:21:22;19.40;63.40
29663;DHT22;16578;53.266;7.920;2022-10-16T14:23:47;19.30;63.60
29663;DHT22;16578;53.266;7.920;2022-10-16T14:26:15;19.30;63.30
29663;DHT22;16578;53.266;7.920;2022-10-16T14:28:42;19.30;63.40
29663;DHT22;16578;53.266;7.920;2022-10-16T14:31:29;19.30;63.50
29663;DHT22;16578;53.266;7.920;2022-10-16T14:33:58;19.30;63.30
29663;DHT22;16578;53.266;7.920;2022-10-16T14:36:25;19.30;63.90
29663;DHT22;16578;53.266;7.920;2022-10-16T14:39:04;19.20;64.00
29663;DHT22;16578;53.266;7.920;2022-10-16T14:41:32;19.20;64.10
29663;DHT22;16578;53.266;7.920;2022-10-16T14:44:04;19.20;64.40
29663;DHT22;16578;53.266;7.920;2022-10-16T14:46:36;19.20;64.30
29663;DHT22;16578;53.266;7.920;2022-10-16T14:49:13;19.20;64.30
29663;DHT22;16578;53.266;7.920;2022-10-16T14:51:41;19.10;64.30
29663;DHT22;16578;53.266;7.920;2022-10-16T14:54:08;19.10;64.70
29663;DHT22;16578;53.266;7.920;2022-10-16T14:56:46;19.10;64.80
29663;DHT22;16578;53.266;7.920;2022-10-16T14:59:17;19.20;64.80
29663;DHT22;16578;53.266;7.920;2022-10-16T15:01:45;19.10;65.40
29663;DHT22;16578;53.266;7.920;2022-10-16T15:04:12;19.10;65.10
29663;DHT22;16578;53.266;7.920;2022-10-16T15:06:37;19.10;64.90
29663;DHT22;16578;53.266;7.920;2022-10-16T15:09:03;19.10;65.00
29663;DHT22;16578;53.266;7.920;2022-10-16T15:11:31;19.10;65.10
29663;DHT22;16578;53.266;7.920;2022-10-16T15:13:57;19.10;65.30
29663;DHT22;16578;53.266;7.920;2022-10-16T15:16:23;19.00;65.40
29663;DHT22;16578;53.266;7.920;2022-10-16T15:18:49;19.00;65.50
29663;DHT22;16578;53.266;7.920;2022-10-16T15:21:31;19.00;65.60
29663;DHT22;16578;53.266;7.920;2022-10-16T15:23:58;19.10;65.70
29663;DHT22;16578;53.266;7.920;2022-10-16T15:26:25;19.00;65.70
29663;DHT22;16578;53.266;7.920;2022-10-16T15:28:51;19.00;65.80
29663;DHT22;16578;53.266;7.920;2022-10-16T15:31:17;19.00;65.90
29663;DHT22;16578;53.266;7.920;2022-10-16T15:33:42;19.00;66.10
29663;DHT22;16578;53.266;7.920;2022-10-16T15:36:08;19.00;66.20
29663;DHT22;16578;53.266;7.920;2022-10-16T15:38:34;19.00;66.20
29663;DHT22;16578;53.266;7.920;2022-10-16T15:41:00;19.00;66.30
29663;DHT22;16578;53.266;7.920;2022-10-16T15:43:26;19.00;66.40
29663;DHT22;16578;53.266;7.920;2022-10-16T15:46:06;18.90;66.50
29663;DHT22;16578;53.266;7.920;2022-10-16T15:48:33;19.00;66.60
29663;DHT22;16578;53.266;7.920;2022-10-16T15:51:07;18.90;67.60
29663;DHT22;16578;53.266;7.920;2022-10-16T15:53:33;18.90;66.80
29663;DHT22;16578;53.266;7.920;2022-10-16T15:56:10;18.90;66.90
29663;DHT22;16578;53.266;7.920;2022-10-16T15:58:36;18.90;67.00
29663;DHT22;16578;53.266;7.920;2022-10-16T16:01:03;18.90;67.10
29663;DHT22;16578;53.266;7.920;2022-10-16T16:03:32;18.90;67.10
29663;DHT22;16578;53.266;7.920;2022-10-16T16:05:58;18.90;67.30
29663;DHT22;16578;53.266;7.920;2022-10-16T16:08:23;18.80;67.40
29663;DHT22;16578;53.266;7.920;2022-10-16T16:11:09;18.80;67.50
29663;DHT22;16578;53.266;7.920;2022-10-16T16:13:35;18.80;67.50
29663;DHT22;16578;53.266;7.920;2022-10-16T16:16:12;18.80;67.60
29663;DHT22;16578;53.266;7.920;2022-10-16T16:18:38;18.80;67.70
29663;DHT22;16578;53.266;7.920;2022-10-16T16:21:04;18.70;67.80
29663;DHT22;16578;53.266;7.920;2022-10-16T16:23:31;18.70;67.90
29663;DHT22;16578;53.266;7.920;2022-10-16T16:26:28;18.70;68.00
29663;DHT22;16578;53.266;7.920;2022-10-16T16:28:59;18.70;68.20
29663;DHT22;16578;53.266;7.920;2022-10-16T16:31:26;18.60;68.20
29663;DHT22;16578;53.266;7.920;2022-10-16T16:33:52;18.60;68.20
29663;DHT22;16578;53.266;7.920;2022-10-16T16:36:18;18.60;68.40
29663;DHT22;16578;53.266;7.920;2022-10-16T16:38:44;18.50;68.20
29663;DHT22;16578;53.266;7.920;2022-10-16T16:41:18;18.50;68.20
29663;DHT22;16578;53.266;7.920;2022-10-16T16:43:44;18.40;68.30
29663;DHT22;16578;53.266;7.920;2022-10-16T16:46:10;18.40;68.40
29663;DHT22;16578;53.266;7.920;2022-10-16T16:48:37;18.40;68.40
29663;DHT22;16578;53.266;7.920;2022-10-16T16:51:07;18.30;68.40
29663;DHT22;16578;53.266;7.920;2022-10-16T16:53:35;18.30;68.40
29663;DHT22;16578;53.266;7.920;2022-10-16T16:56:04;18.30;68.50
29663;DHT22;16578;53.266;7.920;2022-10-16T16:58:31;18.20;68.50
29663;DHT22;16578;53.266;7.920;2022-10-16T17:00:57;18.20;68.70
29663;DHT22;16578;53.266;7.920;2022-10-16T17:03:27;18.10;68.70
29663;DHT22;16578;53.266;7.920;2022-10-16T17:06:02;18.10;68.70
29663;DHT22;16578;53.266;7.920;2022-10-16T17:08:28;18.10;68.80
29663;DHT22;16578;53.266;7.920;2022-10-16T17:10:55;18.00;68.90
29663;DHT22;16578;53.266;7.920;2022-10-16T17:13:26;18.00;68.90
29663;DHT22;16578;53.266;7.920;2022-10-16T17:15:52;17.90;68.90
29663;DHT22;16578;53.266;7.920;2022-10-16T17:18:19;17.90;69.00
29663;DHT22;16578;53.266;7.920;2022-10-16T17:20:45;17.80;68.90
29663;DHT22;16578;53.266;7.920;2022-10-16T17:23:11;17.80;69.10
29663;DHT22;16578;53.266;7.920;2022-10-16T17:25:41;17.80;69.20
29663;DHT22;16578;53.266;7.920;2022-10-16T17:28:08;17.80;69.20
29663;DHT22;16578;53.266;7.920;2022-10-16T17:30:36;17.70;69.20
29663;DHT22;16578;53.266;7.920;2022-10-16T17:33:03;17.60;69.20
29663;DHT22;16578;53.266;7.920;2022-10-16T17:35:29;17.60;69.30
29663;DHT22;16578;53.266;7.920;2022-10-16T17:37:54;17.60;69.40